Time;durP1;ratioP1;P1;durP2;ratioP2;P2;SDS_P1;SDS_P2;PMS_P1;PMS_P2;Temp;Humidity;BMP_temperature;BMP_pressure;BME280_temperature;BME280_humidity;BME280_pressure;Samples;Min_cycle;Max_cycle;Signal;HPM_P1;HPM_P2
2022/05/02 00:01:53;;;;;;;9.45;5.30;;;11.50;99.60;;;;;;5049948;28;20111;-58
2022/05/02 00:04:20;;;;;;;7.68;4.20;;;11.50;99.70;;;;;;5048484;28;20057;-57
2022/05/02 00:06:47;;;;;;;5.00;3.35;;;11.40;99.70;;;;;;5049715;28;20084;-58
2022/05/02 00:09:13;;;;;;;8.00;3.45;;;11.40;99.80;;;;;;5049861;28;20129;-56
2022/05/02 00:11:40;;;;;;;3.90;3.10;;;11.40;99.80;;;;;;5033553;28;20140;-57
2022/05/02 00:14:07;;;;;;;9.23;2.80;;;11.50;99.80;;;;;;5049339;28;20059;-57
2022/05/02 00:16:35;;;;;;;3.80;3.22;;;11.40;99.80;;;;;;5050139;28;20059;-55
2022/05/02 00:19:03;;;;;;;6.50;3.13;;;11.40;99.80;;;;;;5049974;28;20079;-58
2022/05/02 00:21:29;;;;;;;6.22;2.88;;;11.40;99.90;;;;;;5049677;28;20461;-57
2022/05/02 00:23:56;;;;;;;4.88;3.00;;;11.50;99.90;;;;;;5049681;28;20465;-55
2022/05/02 00:26:23;;;;;;;3.95;2.85;;;11.40;99.90;;;;;;5049516;28;20132;-56
2022/05/02 00:28:50;;;;;;;12.80;4.43;;;11.40;99.90;;;;;;5049424;28;20206;-57
2022/05/02 00:31:16;;;;;;;7.25;2.95;;;11.40;99.90;;;;;;5049688;28;20045;-54
2022/05/02 00:33:43;;;;;;;4.65;3.00;;;11.40;99.90;;;;;;5049213;28;20052;-56
2022/05/02 00:36:10;;;;;;;4.90;3.42;;;11.30;99.90;;;;;;5044739;28;20567;-55
2022/05/02 00:38:36;;;;;;;11.18;5.50;;;11.30;99.90;;;;;;5048374;28;20081;-57
2022/05/02 00:41:03;;;;;;;7.95;5.50;;;11.30;99.90;;;;;;5049801;28;20128;-56
2022/05/02 00:43:30;;;;;;;6.68;4.05;;;11.30;99.90;;;;;;5049462;28;20088;-57
2022/05/02 00:45:57;;;;;;;10.23;5.38;;;11.20;99.90;;;;;;5049512;28;20080;-55
2022/05/02 00:48:24;;;;;;;19.52;11.80;;;11.20;99.90;;;;;;5049656;28;20106;-56
2022/05/02 00:50:51;;;;;;;25.60;11.80;;;11.20;99.90;;;;;;5049189;28;20061;-55
2022/05/02 00:53:22;;;;;;;26.27;14.13;;;11.10;99.90;;;;;;5049353;28;20095;-58
2022/05/02 00:55:49;;;;;;;16.80;9.68;;;11.10;99.90;;;;;;4699438;28;10000923;-55
2022/05/02 00:58:16;;;;;;;9.80;6.03;;;11.20;99.90;;;;;;5046067;28;20073;-57
2022/05/02 01:00:43;;;;;;;8.15;4.85;;;11.20;99.90;;;;;;5047225;28;20609;-56
2022/05/02 01:03:11;;;;;;;5.07;3.25;;;11.20;99.90;;;;;;5049047;28;20087;-56
2022/05/02 01:08:26;;;;;;;7.72;4.10;;;11.20;99.90;;;;;;5048329;28;20076;-55
2022/05/02 01:10:54;;;;;;;7.55;4.53;;;11.20;99.90;;;;;;5048603;28;20045;-55
2022/05/02 01:13:40;;;;;;;7.82;4.00;;;11.20;99.90;;;;;;5030983;28;20047;-56
2022/05/02 01:16:14;;;;;;;7.20;4.50;;;11.20;99.90;;;;;;5047624;28;20052;-55
2022/05/02 01:18:49;;;;;;;7.55;5.10;;;11.10;99.90;;;;;;5049076;28;20052;-56
2022/05/02 01:21:21;;;;;;;8.55;5.07;;;11.10;99.90;;;;;;5048720;28;20135;-55
2022/05/02 01:23:52;;;;;;;5.40;4.00;;;11.10;99.90;;;;;;5048257;28;20132;-55
2022/05/02 01:26:19;;;;;;;9.90;3.58;;;11.10;99.90;;;;;;5047433;28;20137;-56
2022/05/02 01:28:49;;;;;;;7.53;4.50;;;11.10;99.90;;;;;;5047758;28;20091;-57
2022/05/02 01:31:16;;;;;;;9.07;4.47;;;11.10;99.90;;;;;;5047816;28;20384;-57
2022/05/02 01:33:43;;;;;;;4.47;3.60;;;11.00;99.90;;;;;;5048296;28;20105;-56
2022/05/02 01:36:10;;;;;;;6.53;4.90;;;11.00;99.90;;;;;;5048229;28;20132;-56
2022/05/02 01:38:37;;;;;;;14.40;4.40;;;11.00;99.90;;;;;;5048741;28;20503;-52
2022/05/02 01:41:05;;;;;;;6.53;3.50;;;11.00;99.90;;;;;;5048231;28;20044;-56
2022/05/02 01:43:32;;;;;;;9.00;4.85;;;11.00;99.90;;;;;;5048450;28;20144;-55
2022/05/02 01:45:59;;;;;;;10.48;4.65;;;10.90;99.90;;;;;;5048540;28;20041;-55
2022/05/02 01:48:27;;;;;;;6.70;3.72;;;10.90;99.90;;;;;;5048512;28;20396;-54
2022/05/02 01:50:54;;;;;;;10.43;5.40;;;10.90;99.90;;;;;;5047652;28;20052;-55
2022/05/02 01:53:21;;;;;;;12.27;4.85;;;10.80;99.90;;;;;;5048276;28;20044;-55
2022/05/02 01:55:47;;;;;;;6.32;4.45;;;10.80;99.90;;;;;;5047040;28;20467;-56
2022/05/02 01:58:14;;;;;;;7.68;4.47;;;10.80;99.90;;;;;;5047647;28;20135;-56
2022/05/02 02:00:41;;;;;;;7.50;4.13;;;10.80;99.90;;;;;;5047122;28;20088;-56
2022/05/02 02:03:08;;;;;;;5.20;4.30;;;10.80;99.90;;;;;;5047861;28;20667;-56
2022/05/02 02:05:50;;;;;;;12.80;5.97;;;10.90;99.90;;;;;;5048054;28;20053;-54
2022/05/02 02:08:19;;;;;;;7.85;4.25;;;10.90;99.90;;;;;;5048025;28;20388;-58
2022/05/02 02:10:46;;;;;;;7.93;3.28;;;10.90;99.90;;;;;;5047681;28;20139;-57
2022/05/02 02:13:13;;;;;;;8.55;3.60;;;10.90;99.90;;;;;;5047504;28;20049;-55
2022/05/02 02:15:40;;;;;;;7.25;3.95;;;10.90;99.90;;;;;;5048163;28;20279;-57
2022/05/02 02:18:07;;;;;;;5.65;3.80;;;10.80;99.90;;;;;;5047849;28;20053;-52
2022/05/02 02:20:34;;;;;;;5.55;3.70;;;10.80;99.90;;;;;;5048025;28;20148;-53
2022/05/02 02:23:00;;;;;;;6.45;3.53;;;10.80;99.90;;;;;;5047616;28;20055;-56
2022/05/02 02:25:27;;;;;;;8.70;3.83;;;10.80;99.90;;;;;;5046740;28;20135;-54
2022/05/02 02:27:54;;;;;;;7.75;3.80;;;10.80;99.90;;;;;;5047191;28;20512;-53
2022/05/02 02:30:21;;;;;;;6.07;4.28;;;10.80;99.90;;;;;;5048037;28;20136;-53
2022/05/02 02:32:48;;;;;;;8.30;3.90;;;10.70;99.90;;;;;;5046688;28;20135;-52
2022/05/02 02:35:14;;;;;;;6.10;4.30;;;10.70;99.90;;;;;;5047805;28;20131;-56
2022/05/02 02:37:41;;;;;;;6.55;4.22;;;10.60;99.90;;;;;;5049496;28;20084;-55
2022/05/02 02:40:09;;;;;;;6.28;3.75;;;10.60;99.90;;;;;;5050186;28;20128;-56
2022/05/02 02:42:36;;;;;;;4.28;3.30;;;10.60;99.90;;;;;;5051167;28;20057;-56
2022/05/02 02:45:03;;;;;;;5.97;3.40;;;10.60;99.90;;;;;;5051554;28;20041;-56
2022/05/02 02:47:30;;;;;;;5.18;3.67;;;10.60;99.90;;;;;;5052128;28;20080;-55
2022/05/02 02:49:57;;;;;;;7.35;4.20;;;10.60;99.90;;;;;;5050095;28;20068;-55
2022/05/02 02:52:23;;;;;;;7.63;4.50;;;10.60;99.90;;;;;;5051685;28;20052;-58
2022/05/02 02:54:50;;;;;;;7.50;4.07;;;10.60;99.90;;;;;;5051273;28;20135;-56
2022/05/02 02:57:17;;;;;;;5.90;3.90;;;10.60;99.90;;;;;;5051470;28;20094;-56
2022/05/02 02:59:44;;;;;;;6.95;4.10;;;10.60;99.90;;;;;;5051221;28;20140;-55
2022/05/02 03:02:11;;;;;;;8.93;3.85;;;10.60;99.90;;;;;;5051482;28;20456;-57
2022/05/02 03:07:23;;;;;;;6.78;3.75;;;10.60;99.90;;;;;;5050075;28;20208;-56
2022/05/02 03:09:50;;;;;;;9.82;5.38;;;10.60;99.90;;;;;;5049946;28;20088;-55
2022/05/02 03:12:17;;;;;;;5.38;4.07;;;10.60;99.90;;;;;;5051004;28;20088;-54
2022/05/02 03:14:44;;;;;;;6.00;4.45;;;10.60;99.90;;;;;;5050633;28;20075;-54
2022/05/02 03:17:11;;;;;;;5.93;4.10;;;10.50;99.90;;;;;;5051088;28;20565;-55
2022/05/02 03:19:38;;;;;;;6.53;4.35;;;10.50;99.90;;;;;;5050408;28;20280;-55
2022/05/02 03:22:05;;;;;;;9.32;5.40;;;10.60;99.90;;;;;;5051234;28;20095;-58
2022/05/02 03:24:32;;;;;;;6.28;4.38;;;10.60;99.90;;;;;;5050583;28;20069;-56
2022/05/02 03:26:59;;;;;;;7.15;4.45;;;10.50;99.90;;;;;;5050559;28;20468;-55
2022/05/02 03:29:25;;;;;;;8.07;4.45;;;10.50;99.90;;;;;;5051072;28;20132;-55
2022/05/02 03:31:52;;;;;;;6.75;4.70;;;10.50;99.90;;;;;;5050877;28;20132;-55
2022/05/02 03:34:19;;;;;;;6.82;4.53;;;10.50;99.90;;;;;;5050146;28;20045;-55
2022/05/02 03:36:46;;;;;;;5.10;3.53;;;10.40;99.90;;;;;;5050645;28;20049;-57
2022/05/02 03:39:12;;;;;;;9.10;4.47;;;10.30;99.90;;;;;;5050895;28;20140;-57
2022/05/02 03:41:39;;;;;;;8.75;4.45;;;10.40;99.90;;;;;;5050363;28;20119;-56
2022/05/02 03:44:06;;;;;;;8.20;4.90;;;10.40;99.90;;;;;;5050624;28;20136;-54
2022/05/02 03:46:32;;;;;;;6.47;5.13;;;10.40;99.90;;;;;;5050553;28;20045;-55
2022/05/02 03:49:00;;;;;;;7.40;4.45;;;10.40;99.90;;;;;;5049883;28;20057;-55
2022/05/02 03:51:27;;;;;;;7.47;4.70;;;10.40;99.90;;;;;;5050254;28;20045;-57
2022/05/02 03:53:54;;;;;;;7.13;4.60;;;10.30;99.90;;;;;;5048683;28;20052;-55
2022/05/02 03:56:21;;;;;;;6.85;4.80;;;10.40;99.90;;;;;;5049660;28;20139;-55
2022/05/02 03:58:47;;;;;;;8.35;4.93;;;10.40;99.90;;;;;;5050316;28;20159;-57
2022/05/02 04:01:14;;;;;;;9.77;4.65;;;10.30;99.90;;;;;;5050034;28;20136;-56
2022/05/02 04:03:41;;;;;;;7.72;4.38;;;10.30;99.90;;;;;;5047517;28;20044;-54
2022/05/02 04:06:08;;;;;;;7.88;4.80;;;10.30;99.90;;;;;;5049668;28;20135;-56
2022/05/02 04:08:35;;;;;;;7.28;4.82;;;10.30;99.90;;;;;;5049951;28;20053;-55
2022/05/02 04:11:02;;;;;;;8.02;4.63;;;10.40;99.90;;;;;;5049786;28;20132;-56
2022/05/02 04:13:29;;;;;;;9.95;4.70;;;10.30;99.90;;;;;;5050048;28;20564;-57
2022/05/02 04:15:55;;;;;;;8.20;4.72;;;10.30;99.90;;;;;;5048529;28;20496;-56
2022/05/02 04:18:22;;;;;;;6.57;4.78;;;10.30;99.90;;;;;;5050005;28;20049;-55
2022/05/02 04:20:49;;;;;;;7.45;4.72;;;10.30;99.90;;;;;;5049610;28;20080;-56
2022/05/02 04:23:16;;;;;;;8.55;5.22;;;10.20;99.90;;;;;;5049574;28;20084;-55
2022/05/02 04:25:42;;;;;;;7.72;4.90;;;10.30;99.90;;;;;;5049846;28;20127;-55
2022/05/02 04:28:11;;;;;;;8.63;4.18;;;10.30;99.90;;;;;;5049553;28;20059;-54
2022/05/02 04:30:38;;;;;;;6.85;4.78;;;10.40;99.90;;;;;;5047353;28;20077;-57
2022/05/02 04:33:05;;;;;;;8.88;4.85;;;10.40;99.90;;;;;;5049465;28;20135;-54
2022/05/02 04:35:32;;;;;;;7.32;4.45;;;10.40;99.90;;;;;;5048583;28;20069;-56
2022/05/02 04:38:00;;;;;;;7.78;4.78;;;10.40;99.90;;;;;;5049029;28;20045;-53
2022/05/02 04:40:27;;;;;;;6.97;4.60;;;10.40;99.90;;;;;;5049001;28;20137;-57
2022/05/02 04:42:53;;;;;;;9.00;5.03;;;10.50;99.90;;;;;;5049306;28;20044;-56
2022/05/02 04:45:20;;;;;;;8.00;5.50;;;10.40;99.90;;;;;;5049534;28;20076;-54
2022/05/02 04:47:47;;;;;;;7.88;5.28;;;10.40;99.90;;;;;;5049120;28;20044;-56
2022/05/02 04:50:14;;;;;;;9.68;5.40;;;10.40;99.90;;;;;;5049184;28;20045;-55
2022/05/02 04:52:40;;;;;;;6.88;4.93;;;10.40;99.90;;;;;;5049351;28;20056;-55
2022/05/02 04:55:08;;;;;;;7.57;5.22;;;10.40;99.90;;;;;;5049421;28;20136;-55
2022/05/02 04:57:35;;;;;;;8.35;5.07;;;10.40;99.90;;;;;;5048264;28;20128;-58
2022/05/02 05:00:03;;;;;;;6.50;5.07;;;10.50;99.90;;;;;;5049097;28;20128;-54
2022/05/02 05:02:29;;;;;;;7.90;5.80;;;10.60;99.90;;;;;;5047691;28;20081;-55
2022/05/02 05:04:56;;;;;;;9.57;6.20;;;10.60;99.90;;;;;;5048590;28;20132;-54
2022/05/02 05:07:23;;;;;;;12.90;5.30;;;10.60;99.90;;;;;;5049108;28;20044;-56
2022/05/02 05:09:50;;;;;;;8.55;5.55;;;10.60;99.90;;;;;;5047295;28;20079;-57
2022/05/02 05:12:22;;;;;;;9.30;6.07;;;10.60;99.90;;;;;;5048890;28;20072;-54
2022/05/02 05:18:34;;;;;;;7.40;5.15;;;10.60;99.90;;;;;;5034834;28;20041;-56
2022/05/02 05:21:16;;;;;;;11.43;5.60;;;10.70;99.90;;;;;;5048831;28;20053;-57
2022/05/02 05:24:13;;;;;;;10.70;5.85;;;10.60;99.90;;;;;;5047529;28;20044;-54
2022/05/02 05:26:46;;;;;;;11.93;6.63;;;10.70;99.90;;;;;;5048433;28;20131;-53
2022/05/02 05:29:29;;;;;;;8.27;5.20;;;10.70;99.90;;;;;;5048239;28;20098;-53
2022/05/02 05:32:18;;;;;;;10.25;5.43;;;10.80;99.90;;;;;;5047411;28;20080;-55
2022/05/02 05:34:59;;;;;;;10.00;4.88;;;10.80;99.90;;;;;;5047951;28;20049;-55
2022/05/02 05:37:28;;;;;;;10.13;5.95;;;10.70;99.90;;;;;;5048051;28;20531;-56
2022/05/02 05:40:17;;;;;;;9.52;5.82;;;10.60;99.90;;;;;;5047967;28;20071;-57
2022/05/02 05:43:06;;;;;;;7.85;5.40;;;10.70;99.90;;;;;;5028322;28;20121;-57
2022/05/02 05:46:00;;;;;;;12.23;6.80;;;10.70;99.90;;;;;;5045861;28;20111;-56
2022/05/02 05:48:50;;;;;;;;;;;10.80;99.90;;;;;;5048716;28;20053;-55
2022/05/02 05:51:36;;;;;;;9.68;6.28;;;10.80;99.90;;;;;;5044067;28;19930;-57
2022/05/02 05:54:24;;;;;;;8.68;5.70;;;10.80;99.90;;;;;;5047063;28;20041;-56
2022/05/02 05:57:02;;;;;;;11.00;5.63;;;10.90;99.90;;;;;;5047555;28;20076;-57
2022/05/02 05:59:32;;;;;;;12.93;6.22;;;11.00;99.90;;;;;;5048143;28;20051;-56
2022/05/02 06:02:32;;;;;;;8.35;5.93;;;11.00;99.90;;;;;;5048106;28;20140;-56
2022/05/02 06:04:59;;;;;;;10.38;6.15;;;11.00;99.90;;;;;;5038660;28;20152;-56
2022/05/02 06:07:27;;;;;;;13.20;6.88;;;11.00;99.90;;;;;;5030071;28;20045;-55
2022/05/02 06:09:57;;;;;;;13.10;7.82;;;11.00;99.90;;;;;;5047854;28;20124;-55
2022/05/02 06:12:24;;;;;;;13.10;6.13;;;11.00;99.90;;;;;;5035900;28;20052;-56
2022/05/02 06:20:24;;;;;;;10.70;6.72;;;10.90;99.90;;;;;;5046425;28;20045;-57
2022/05/02 06:22:50;;;;;;;9.63;7.10;;;10.90;99.90;;;;;;5046757;28;20080;-56
2022/05/02 06:25:18;;;;;;;12.52;7.32;;;11.00;99.90;;;;;;5047556;28;20132;-54
2022/05/02 06:27:45;;;;;;;11.27;8.07;;;11.00;99.90;;;;;;5030069;28;20717;-55
2022/05/02 06:30:12;;;;;;;14.55;8.52;;;10.90;99.90;;;;;;5046107;28;20091;-59
2022/05/02 06:32:39;;;;;;;13.40;8.10;;;10.90;99.90;;;;;;5045927;28;20080;-56
2022/05/02 06:35:06;;;;;;;14.18;8.20;;;10.90;99.90;;;;;;5046143;28;20045;-57
2022/05/02 06:38:11;;;;;;;17.17;8.77;;;10.90;99.90;;;;;;5045736;28;20072;-58
2022/05/02 06:41:18;;;;;;;18.27;12.18;;;11.00;99.90;;;;;;4987530;28;20054;-56
2022/05/02 06:44:09;;;;;;;18.15;11.25;;;11.00;99.90;;;;;;5040498;28;20087;-57
2022/05/02 06:46:43;;;;;;;19.70;11.10;;;11.00;99.90;;;;;;5045873;28;20137;-56
2022/05/02 06:49:11;;;;;;;16.95;11.02;;;11.00;99.90;;;;;;5045596;28;20045;-57
2022/05/02 06:51:42;;;;;;;17.38;11.10;;;11.00;99.90;;;;;;5046397;28;20128;-58
2022/05/02 06:54:21;;;;;;;14.88;10.15;;;11.10;99.90;;;;;;5046464;28;20171;-56
2022/05/02 06:57:07;;;;;;;18.48;12.07;;;11.20;99.90;;;;;;5044227;28;20180;-55
2022/05/02 06:59:58;;;;;;;19.63;10.98;;;11.30;99.90;;;;;;5029979;28;20041;-58
2022/05/02 07:02:55;;;;;;;20.80;10.73;;;11.40;99.90;;;;;;5027794;28;20114;-57
2022/05/02 07:05:27;;;;;;;18.27;10.77;;;11.40;99.90;;;;;;4694881;28;10001333;-54
2022/05/02 07:08:04;;;;;;;16.50;9.85;;;11.40;99.90;;;;;;5043411;28;20110;-56
2022/05/02 07:10:40;;;;;;;13.68;10.10;;;11.30;99.90;;;;;;5043961;28;20045;-59
2022/05/02 07:13:29;;;;;;;18.85;10.05;;;11.40;99.90;;;;;;5027694;28;20076;-56
2022/05/02 07:16:29;;;;;;;15.15;9.68;;;11.30;99.90;;;;;;5041386;28;20049;-57
2022/05/02 07:19:16;;;;;;;16.02;10.30;;;11.20;99.90;;;;;;5027839;28;20060;-57
2022/05/02 07:22:03;;;;;;;19.25;10.07;;;11.20;99.90;;;;;;5039857;28;20721;-57
2022/05/02 07:24:51;;;;;;;13.25;8.45;;;11.30;99.90;;;;;;5046522;28;20099;-58
2022/05/02 07:27:44;;;;;;;13.50;8.85;;;11.30;99.90;;;;;;5046981;28;20048;-55
2022/05/02 07:30:11;;;;;;;15.65;8.82;;;11.40;99.90;;;;;;5039723;28;20139;-57
2022/05/02 07:32:37;;;;;;;13.60;9.55;;;11.50;99.90;;;;;;5047965;28;20068;-56
2022/05/02 07:35:05;;;;;;;16.15;9.07;;;11.50;99.90;;;;;;5049416;28;20499;-56
2022/05/02 07:37:32;;;;;;;11.90;8.07;;;11.50;99.90;;;;;;5049363;28;20081;-57
2022/05/02 07:39:59;;;;;;;15.75;7.97;;;11.50;99.90;;;;;;5046455;28;20550;-53
2022/05/02 07:42:30;;;;;;;13.65;7.72;;;11.60;99.90;;;;;;5049555;28;20045;-56
2022/05/02 07:44:56;;;;;;;10.52;6.65;;;11.70;99.90;;;;;;5048567;28;20100;-56
2022/05/02 07:47:24;;;;;;;16.67;7.13;;;11.70;99.90;;;;;;5032046;28;20472;-55
2022/05/02 07:49:52;;;;;;;12.73;7.30;;;11.80;99.90;;;;;;5048921;28;20524;-55
2022/05/02 07:52:24;;;;;;;11.75;8.18;;;11.80;99.90;;;;;;5049126;28;20128;-55
2022/05/02 07:54:51;;;;;;;11.77;7.43;;;11.90;99.90;;;;;;5047029;28;20484;-56
2022/05/02 07:57:20;;;;;;;12.93;7.95;;;12.00;99.90;;;;;;5048021;28;20052;-55
2022/05/02 07:59:50;;;;;;;10.32;6.72;;;12.10;99.90;;;;;;5047465;28;20059;-55
2022/05/02 08:02:18;;;;;;;14.40;6.90;;;12.20;99.90;;;;;;5047221;28;20080;-53
2022/05/02 08:04:46;;;;;;;14.07;7.53;;;12.40;99.90;;;;;;5045644;28;20053;-56
2022/05/02 08:07:24;;;;;;;9.68;6.50;;;12.40;99.90;;;;;;5029460;28;20051;-55
2022/05/02 08:10:13;;;;;;;13.40;6.45;;;12.40;99.90;;;;;;5045731;28;20492;-52
2022/05/02 08:12:46;;;;;;;9.70;6.47;;;12.40;99.90;;;;;;5046736;28;20041;-56
2022/05/02 08:15:22;;;;;;;12.10;7.47;;;12.40;99.90;;;;;;5045825;28;20068;-58
2022/05/02 08:18:30;;;;;;;13.20;6.90;;;12.50;99.90;;;;;;5026708;28;20448;-57
2022/05/02 08:21:03;;;;;;;12.88;6.63;;;12.60;99.90;;;;;;5011152;28;20041;-57
2022/05/02 08:27:16;;;;;;;10.07;5.88;;;12.80;99.90;;;;;;5045789;28;20084;-57
2022/05/02 08:30:07;;;;;;;15.15;5.90;;;12.70;99.90;;;;;;5046357;28;20140;-57
2022/05/02 08:33:09;;;;;;;9.68;6.07;;;12.80;99.90;;;;;;5046512;28;20166;-53
2022/05/02 08:35:42;;;;;;;6.65;4.75;;;12.80;99.90;;;;;;5003678;28;20065;-53
2022/05/02 08:38:56;;;;;;;7.75;4.85;;;13.00;99.90;;;;;;5039035;28;20045;-53
2022/05/02 08:41:30;;;;;;;10.23;4.97;;;13.20;99.70;;;;;;5041812;28;20053;-57
2022/05/02 08:44:18;;;;;;;12.73;5.80;;;13.20;99.90;;;;;;5045703;28;20057;-58
2022/05/02 08:46:57;;;;;;;8.57;4.75;;;13.30;99.50;;;;;;5045416;28;20041;-56
2022/05/02 08:49:36;;;;;;;9.18;4.95;;;13.30;99.90;;;;;;5043081;28;20049;-59
2022/05/02 08:52:37;;;;;;;6.07;4.38;;;13.50;99.90;;;;;;5041458;28;20048;-59
2022/05/02 08:55:16;;;;;;;8.07;4.05;;;13.50;99.60;;;;;;5045191;28;20141;-58
2022/05/02 08:58:05;;;;;;;5.60;3.83;;;13.70;99.90;;;;;;5044554;28;20051;-60
2022/05/02 09:01:00;;;;;;;6.00;3.70;;;13.90;99.10;;;;;;5029817;28;20152;-59
2022/05/02 09:03:51;;;;;;;10.68;3.92;;;14.10;99.70;;;;;;5029159;28;20100;-58
2022/05/02 09:06:33;;;;;;;5.75;3.35;;;14.30;99.40;;;;;;5034907;28;20053;-56
2022/05/02 09:09:35;;;;;;;5.30;2.63;;;14.50;98.40;;;;;;5044760;28;20114;-59
2022/05/02 09:12:37;;;;;;;4.88;3.15;;;14.70;97.60;;;;;;5044579;28;20136;-57
2022/05/02 09:15:35;;;;;;;8.00;2.55;;;14.50;96.20;;;;;;5032983;28;20566;-58
2022/05/02 09:18:10;;;;;;;3.40;2.40;;;14.40;96.50;;;;;;5044800;28;20745;-58
2022/05/02 09:20:43;;;;;;;4.22;2.60;;;14.40;97.10;;;;;;5044817;28;20143;-59
2022/05/02 09:23:37;;;;;;;3.97;2.50;;;14.50;97.90;;;;;;5043595;28;20139;-57
2022/05/02 09:26:26;;;;;;;3.83;2.10;;;14.60;96.60;;;;;;5025714;28;20140;-59
2022/05/02 09:29:20;;;;;;;3.72;2.13;;;14.70;97.90;;;;;;5033432;28;20567;-59
2022/05/02 09:31:52;;;;;;;4.13;2.42;;;14.90;95.70;;;;;;5043865;28;20141;-58
2022/05/02 09:34:31;;;;;;;7.13;3.03;;;15.00;97.70;;;;;;5040608;28;20067;-60
2022/05/02 09:37:12;;;;;;;5.35;2.85;;;15.10;97.30;;;;;;5033178;28;20136;-57
2022/05/02 09:39:50;;;;;;;4.28;2.78;;;15.20;97.20;;;;;;5041966;28;20081;-59
2022/05/02 09:42:19;;;;;;;10.57;3.13;;;15.40;96.50;;;;;;5031134;28;20041;-59
2022/05/02 09:50:48;;;;;;;4.88;2.75;;;15.20;97.10;;;;;;5041403;28;20072;-60
2022/05/02 09:53:15;;;;;;;5.22;2.80;;;15.30;97.40;;;;;;5038823;28;20053;-60
2022/05/02 09:58:43;;;;;;;10.18;3.25;;;15.50;96.90;;;;;;5043858;28;20139;-60
2022/05/02 10:01:26;;;;;;;3.70;2.55;;;15.50;96.70;;;;;;5042824;28;20180;-60
2022/05/02 10:04:31;;;;;;;3.35;2.63;;;15.60;95.60;;;;;;5044653;28;20059;-60
2022/05/02 10:07:08;;;;;;;5.95;3.65;;;15.80;95.40;;;;;;5038950;28;20049;-58
2022/05/02 10:09:53;;;;;;;5.13;2.33;;;15.80;95.90;;;;;;5042992;28;20049;-59
2022/05/02 10:12:40;;;;;;;4.00;2.53;;;15.90;95.30;;;;;;5044223;28;20571;-58
2022/05/02 10:15:20;;;;;;;3.03;2.40;;;15.90;94.40;;;;;;5043899;28;20037;-58
2022/05/02 10:17:55;;;;;;;3.72;2.53;;;16.00;95.70;;;;;;5042446;28;20052;-60
2022/05/02 10:20:22;;;;;;;4.75;2.50;;;16.10;95.90;;;;;;5037387;28;20148;-60
2022/05/02 10:23:04;;;;;;;3.97;2.72;;;16.20;95.90;;;;;;5044538;28;20175;-59
2022/05/02 10:25:43;;;;;;;6.47;3.08;;;16.20;94.30;;;;;;5041417;28;20103;-59
2022/05/02 10:28:16;;;;;;;7.65;2.75;;;16.20;95.30;;;;;;5043830;28;20191;-59
2022/05/02 10:30:53;;;;;;;4.53;2.80;;;16.20;94.60;;;;;;5043938;28;20131;-59
2022/05/02 10:33:33;;;;;;;4.60;2.13;;;16.20;95.60;;;;;;5042655;28;20123;-60
2022/05/02 10:36:01;;;;;;;4.10;2.30;;;16.20;94.50;;;;;;5042815;28;20053;-60
2022/05/02 10:38:29;;;;;;;4.15;3.03;;;16.10;95.40;;;;;;5042199;28;20128;-60
2022/05/02 10:41:19;;;;;;;6.05;2.40;;;16.20;95.50;;;;;;5043552;28;20124;-60
2022/05/02 10:43:50;;;;;;;4.47;2.15;;;16.30;94.00;;;;;;5041594;28;20081;-59
2022/05/02 10:46:20;;;;;;;3.97;2.67;;;16.30;94.90;;;;;;5043484;28;20167;-60
2022/05/02 10:48:53;;;;;;;7.50;2.28;;;16.30;95.00;;;;;;5043479;28;20051;-58
2022/05/02 10:51:32;;;;;;;5.23;1.97;;;16.00;92.70;;;;;;5041773;28;20474;-59
2022/05/02 10:54:09;;;;;;;2.92;2.17;;;16.00;92.80;;;;;;5041681;28;20042;-59
2022/05/02 10:56:41;;;;;;;4.20;2.42;;;15.90;94.20;;;;;;5041678;28;20052;-59
2022/05/02 10:59:10;;;;;;;2.60;1.83;;;16.00;93.50;;;;;;5037767;28;20063;-60
2022/05/02 11:01:49;;;;;;;4.00;2.47;;;16.00;94.70;;;;;;5047359;28;20132;-59
2022/05/02 11:04:25;;;;;;;3.78;2.20;;;16.20;93.30;;;;;;5047495;28;20098;-60
2022/05/02 11:07:13;;;;;;;3.17;1.80;;;16.10;93.80;;;;;;5046898;28;20132;-60
2022/05/02 11:09:53;;;;;;;2.95;2.13;;;16.20;93.30;;;;;;5042800;28;20141;-58
2022/05/02 11:12:22;;;;;;;4.20;2.40;;;16.20;94.10;;;;;;5035076;28;20136;-59
2022/05/02 11:15:17;;;;;;;3.30;1.60;;;16.20;93.30;;;;;;5047248;28;20065;-59
2022/05/02 11:21:21;;;;;;;3.25;1.73;;;16.60;91.90;;;;;;5038318;28;20083;-59
2022/05/02 11:24:22;;;;;;;2.47;2.03;;;16.70;92.60;;;;;;5046495;28;20522;-56
2022/05/02 11:27:09;;;;;;;5.55;2.35;;;16.70;92.40;;;;;;5044735;28;20578;-57
2022/05/02 11:29:46;;;;;;;4.53;2.00;;;16.70;92.70;;;;;;5045750;28;20049;-59
2022/05/02 11:32:37;;;;;;;4.85;2.10;;;16.80;92.80;;;;;;5044798;28;20060;-60
2022/05/02 11:35:13;;;;;;;7.82;3.65;;;16.70;91.60;;;;;;5030428;28;20108;-60
2022/05/02 11:37:56;;;;;;;6.50;4.30;;;16.50;93.30;;;;;;5044718;28;20467;-58
2022/05/02 11:40:28;;;;;;;8.18;4.93;;;16.40;93.40;;;;;;5031723;28;20089;-56
2022/05/02 11:42:55;;;;;;;8.50;5.82;;;16.20;93.80;;;;;;5045660;28;20127;-58
2022/05/02 11:45:43;;;;;;;9.48;5.05;;;16.20;93.70;;;;;;5045045;28;20053;-58
2022/05/02 11:48:40;;;;;;;8.10;4.60;;;16.10;93.50;;;;;;5041996;28;20052;-57
2022/05/02 11:51:07;;;;;;;8.90;4.60;;;16.10;93.90;;;;;;5045389;28;20110;-59
2022/05/02 11:53:35;;;;;;;5.22;3.80;;;16.00;94.10;;;;;;5045075;28;20101;-58
2022/05/02 11:56:04;;;;;;;6.07;4.05;;;16.00;94.20;;;;;;5043494;28;20080;-59
2022/05/02 11:58:46;;;;;;;7.43;4.75;;;16.00;94.00;;;;;;5045165;28;20098;-57
2022/05/02 12:01:17;;;;;;;6.05;3.55;;;16.00;93.80;;;;;;5033757;28;20119;-58
2022/05/02 12:04:08;;;;;;;7.68;4.40;;;16.20;94.40;;;;;;5045314;28;20227;-57
2022/05/02 12:06:59;;;;;;;5.95;3.42;;;16.30;94.10;;;;;;5044842;28;20049;-56
2022/05/02 12:09:26;;;;;;;8.60;5.05;;;16.40;93.40;;;;;;5034972;28;20516;-57
2022/05/02 12:11:55;;;;;;;7.70;3.53;;;16.30;94.00;;;;;;5042763;28;20106;-58
2022/05/02 12:14:21;;;;;;;8.13;4.18;;;16.20;94.00;;;;;;5044491;28;20072;-59
2022/05/02 12:17:09;;;;;;;9.32;3.80;;;16.10;93.70;;;;;;5043726;28;20056;-59
2022/05/02 12:19:38;;;;;;;8.35;3.80;;;16.10;93.60;;;;;;5043671;28;20056;-58
2022/05/02 12:22:26;;;;;;;6.22;3.63;;;16.00;93.80;;;;;;5046104;28;20069;-58
2022/05/02 12:24:54;;;;;;;5.15;3.33;;;15.80;93.40;;;;;;5041289;28;20741;-59
2022/05/02 12:27:22;;;;;;;10.73;3.33;;;15.80;94.20;;;;;;5037170;28;20120;-57
2022/05/02 12:29:58;;;;;;;6.95;3.55;;;15.70;94.30;;;;;;5043942;28;20061;-56
2022/05/02 12:32:26;;;;;;;4.22;3.47;;;15.70;94.20;;;;;;5032707;28;20132;-57
2022/05/02 12:34:55;;;;;;;8.02;3.88;;;15.70;94.20;;;;;;5044767;28;20076;-58
2022/05/02 12:37:30;;;;;;;8.75;5.32;;;15.70;94.50;;;;;;5044442;28;20080;-58
2022/05/02 12:40:02;;;;;;;8.63;4.78;;;15.80;94.40;;;;;;5042048;28;20130;-57
2022/05/02 12:42:48;;;;;;;7.55;5.30;;;15.70;94.60;;;;;;5042269;28;20056;-59
2022/05/02 12:45:17;;;;;;;10.45;4.78;;;15.70;94.60;;;;;;5039453;28;20518;-56
2022/05/02 12:48:00;;;;;;;9.50;5.30;;;15.70;94.70;;;;;;5044998;28;20106;-59
2022/05/02 12:50:28;;;;;;;4.63;3.42;;;15.80;94.10;;;;;;5043946;28;20080;-59
2022/05/02 12:52:56;;;;;;;3.70;3.03;;;15.90;94.60;;;;;;5045991;28;20672;-57
2022/05/02 12:55:36;;;;;;;6.78;3.05;;;15.90;94.50;;;;;;5044645;28;20425;-57
2022/05/02 13:00:52;;;;;;;4.80;2.78;;;15.70;94.50;;;;;;5032365;28;20057;-58
2022/05/02 13:03:21;;;;;;;6.20;3.85;;;15.70;94.40;;;;;;5046974;28;20122;-57
2022/05/02 13:05:58;;;;;;;6.53;3.50;;;15.80;94.50;;;;;;5046061;28;20135;-57
2022/05/02 13:08:36;;;;;;;7.25;4.13;;;15.80;94.40;;;;;;5045250;28;20670;-58
2022/05/02 13:11:04;;;;;;;7.88;3.88;;;15.80;94.30;;;;;;5046145;28;20128;-59
2022/05/02 13:13:48;;;;;;;9.25;4.60;;;15.90;94.80;;;;;;5046579;28;20174;-58
2022/05/02 13:16:26;;;;;;;5.60;3.47;;;16.10;93.70;;;;;;5043645;28;20547;-58
2022/05/02 13:18:53;;;;;;;9.13;3.97;;;16.20;93.90;;;;;;5045641;28;20052;-58
2022/05/02 13:21:20;;;;;;;4.38;3.53;;;16.30;94.20;;;;;;5046730;28;20095;-60
2022/05/02 13:23:48;;;;;;;10.88;4.13;;;16.40;94.20;;;;;;5045687;28;20045;-58
2022/05/02 13:26:19;;;;;;;6.78;4.25;;;16.50;93.90;;;;;;5044933;28;20049;-57
2022/05/02 13:29:07;;;;;;;11.02;4.88;;;16.50;93.70;;;;;;5030422;28;20072;-59
2022/05/02 13:31:56;;;;;;;7.03;5.10;;;16.60;93.50;;;;;;5042402;28;20251;-57
2022/05/02 13:34:51;;;;;;;8.68;4.07;;;16.70;93.70;;;;;;5046970;28;20131;-56
2022/05/02 13:37:27;;;;;;;9.13;4.82;;;16.70;92.50;;;;;;5019814;28;20132;-57
2022/05/02 13:40:07;;;;;;;6.68;3.90;;;16.70;92.90;;;;;;5046382;28;20049;-56
2022/05/02 13:42:51;;;;;;;8.40;3.88;;;16.70;92.80;;;;;;5043418;28;20148;-58
2022/05/02 13:45:35;;;;;;;7.30;4.75;;;16.60;92.90;;;;;;5047362;28;20080;-57
2022/05/02 13:48:11;;;;;;;10.20;4.45;;;16.70;92.90;;;;;;5046815;28;20053;-57
2022/05/02 13:51:17;;;;;;;7.05;3.47;;;16.70;93.30;;;;;;5044445;28;20460;-57
2022/05/02 13:54:05;;;;;;;13.70;4.78;;;16.90;92.50;;;;;;5026630;28;20131;-58